sensor_id;sensor_type;location;lat;lon;timestamp;P1;durP1;ratioP1;P2;durP2;ratioP2
74833;SDS011;63361;52.384;20.930;2023-04-24T00:00:13;11.37;;;6.70;;
74833;SDS011;63361;52.384;20.930;2023-04-24T00:02:40;10.77;;;6.50;;
74833;SDS011;63361;52.384;20.930;2023-04-24T00:05:11;13.65;;;7.13;;
74833;SDS011;63361;52.384;20.930;2023-04-24T00:07:37;12.77;;;7.13;;
74833;SDS011;63361;52.384;20.930;2023-04-24T00:10:02;11.47;;;6.47;;
74833;SDS011;63361;52.384;20.930;2023-04-24T00:12:28;12.27;;;6.53;;
74833;SDS011;63361;52.384;20.930;2023-04-24T00:14:53;13.00;;;6.90;;
74833;SDS011;63361;52.384;20.930;2023-04-24T00:17:18;16.30;;;6.53;;
74833;SDS011;63361;52.384;20.930;2023-04-24T00:19:47;11.75;;;6.68;;
74833;SDS011;63361;52.384;20.930;2023-04-24T00:22:13;12.77;;;7.50;;
74833;SDS011;63361;52.384;20.930;2023-04-24T00:24:39;14.52;;;7.43;;
74833;SDS011;63361;52.384;20.930;2023-04-24T00:27:05;12.30;;;7.50;;
74833;SDS011;63361;52.384;20.930;2023-04-24T00:29:30;12.57;;;6.80;;
74833;SDS011;63361;52.384;20.930;2023-04-24T00:31:56;13.50;;;7.13;;
74833;SDS011;63361;52.384;20.930;2023-04-24T00:34:21;14.27;;;7.17;;
74833;SDS011;63361;52.384;20.930;2023-04-24T00:36:46;11.13;;;6.38;;
74833;SDS011;63361;52.384;20.930;2023-04-24T00:39:14;11.37;;;6.73;;
74833;SDS011;63361;52.384;20.930;2023-04-24T00:41:39;13.07;;;7.32;;
74833;SDS011;63361;52.384;20.930;2023-04-24T00:44:04;13.40;;;7.13;;
74833;SDS011;63361;52.384;20.930;2023-04-24T00:46:30;14.53;;;7.30;;
74833;SDS011;63361;52.384;20.930;2023-04-24T00:48:56;11.77;;;7.22;;
74833;SDS011;63361;52.384;20.930;2023-04-24T00:51:23;12.48;;;6.88;;
74833;SDS011;63361;52.384;20.930;2023-04-24T00:53:49;11.53;;;7.47;;
74833;SDS011;63361;52.384;20.930;2023-04-24T00:56:15;12.63;;;6.80;;
74833;SDS011;63361;52.384;20.930;2023-04-24T00:58:42;13.70;;;7.45;;
74833;SDS011;63361;52.384;20.930;2023-04-24T01:01:08;15.75;;;7.90;;
74833;SDS011;63361;52.384;20.930;2023-04-24T01:03:34;14.32;;;7.38;;
74833;SDS011;63361;52.384;20.930;2023-04-24T01:06:02;16.40;;;7.60;;
74833;SDS011;63361;52.384;20.930;2023-04-24T01:08:28;16.55;;;7.53;;
74833;SDS011;63361;52.384;20.930;2023-04-24T01:10:54;17.85;;;7.75;;
74833;SDS011;63361;52.384;20.930;2023-04-24T01:13:21;11.70;;;7.18;;
74833;SDS011;63361;52.384;20.930;2023-04-24T01:15:47;13.83;;;7.73;;
74833;SDS011;63361;52.384;20.930;2023-04-24T01:18:13;14.52;;;7.68;;
74833;SDS011;63361;52.384;20.930;2023-04-24T01:20:39;14.77;;;7.93;;
74833;SDS011;63361;52.384;20.930;2023-04-24T01:23:07;15.00;;;7.72;;
74833;SDS011;63361;52.384;20.930;2023-04-24T01:25:33;12.45;;;7.95;;
74833;SDS011;63361;52.384;20.930;2023-04-24T01:27:59;16.03;;;7.43;;
74833;SDS011;63361;52.384;20.930;2023-04-24T01:30:25;13.83;;;7.90;;
74833;SDS011;63361;52.384;20.930;2023-04-24T01:32:52;18.00;;;8.15;;
74833;SDS011;63361;52.384;20.930;2023-04-24T01:35:18;12.95;;;7.53;;
74833;SDS011;63361;52.384;20.930;2023-04-24T01:37:44;12.43;;;7.70;;
74833;SDS011;63361;52.384;20.930;2023-04-24T01:40:10;16.90;;;8.23;;
74833;SDS011;63361;52.384;20.930;2023-04-24T01:42:36;13.53;;;7.27;;
74833;SDS011;63361;52.384;20.930;2023-04-24T01:45:02;16.98;;;8.43;;
74833;SDS011;63361;52.384;20.930;2023-04-24T01:47:28;13.77;;;8.37;;
74833;SDS011;63361;52.384;20.930;2023-04-24T01:49:54;13.93;;;8.25;;
74833;SDS011;63361;52.384;20.930;2023-04-24T01:52:20;15.30;;;8.93;;
74833;SDS011;63361;52.384;20.930;2023-04-24T01:54:48;16.50;;;9.10;;
74833;SDS011;63361;52.384;20.930;2023-04-24T01:57:14;15.17;;;8.10;;
74833;SDS011;63361;52.384;20.930;2023-04-24T01:59:41;15.68;;;7.90;;
74833;SDS011;63361;52.384;20.930;2023-04-24T02:02:06;14.33;;;9.13;;
74833;SDS011;63361;52.384;20.930;2023-04-24T02:04:32;17.25;;;9.80;;
74833;SDS011;63361;52.384;20.930;2023-04-24T02:06:58;16.90;;;10.43;;
74833;SDS011;63361;52.384;20.930;2023-04-24T02:09:23;17.50;;;10.55;;
74833;SDS011;63361;52.384;20.930;2023-04-24T02:11:48;16.50;;;10.60;;
74833;SDS011;63361;52.384;20.930;2023-04-24T02:14:14;19.03;;;9.87;;
74833;SDS011;63361;52.384;20.930;2023-04-24T02:16:39;15.10;;;9.20;;
74833;SDS011;63361;52.384;20.930;2023-04-24T02:19:04;15.73;;;9.00;;
74833;SDS011;63361;52.384;20.930;2023-04-24T02:21:30;14.70;;;9.10;;
74833;SDS011;63361;52.384;20.930;2023-04-24T02:23:58;14.37;;;9.00;;
74833;SDS011;63361;52.384;20.930;2023-04-24T02:26:24;16.10;;;9.17;;
74833;SDS011;63361;52.384;20.930;2023-04-24T02:28:50;15.40;;;9.82;;
74833;SDS011;63361;52.384;20.930;2023-04-24T02:31:15;16.00;;;8.93;;
74833;SDS011;63361;52.384;20.930;2023-04-24T02:33:40;15.87;;;9.00;;
74833;SDS011;63361;52.384;20.930;2023-04-24T02:36:06;15.73;;;8.63;;
74833;SDS011;63361;52.384;20.930;2023-04-24T02:38:31;16.30;;;8.87;;
74833;SDS011;63361;52.384;20.930;2023-04-24T02:40:56;14.70;;;8.67;;
74833;SDS011;63361;52.384;20.930;2023-04-24T02:43:22;18.00;;;9.53;;
74833;SDS011;63361;52.384;20.930;2023-04-24T02:45:47;18.33;;;9.70;;
74833;SDS011;63361;52.384;20.930;2023-04-24T02:48:12;17.43;;;9.67;;
74833;SDS011;63361;52.384;20.930;2023-04-24T02:50:38;14.80;;;9.67;;
74833;SDS011;63361;52.384;20.930;2023-04-24T02:53:03;16.33;;;9.05;;
74833;SDS011;63361;52.384;20.930;2023-04-24T02:55:28;16.33;;;9.77;;
74833;SDS011;63361;52.384;20.930;2023-04-24T02:57:54;15.17;;;10.10;;
74833;SDS011;63361;52.384;20.930;2023-04-24T03:00:19;16.43;;;9.73;;
74833;SDS011;63361;52.384;20.930;2023-04-24T03:02:45;14.52;;;9.18;;
74833;SDS011;63361;52.384;20.930;2023-04-24T03:05:10;18.73;;;8.83;;
74833;SDS011;63361;52.384;20.930;2023-04-24T03:07:37;15.40;;;9.63;;
74833;SDS011;63361;52.384;20.930;2023-04-24T03:10:02;14.90;;;9.17;;
74833;SDS011;63361;52.384;20.930;2023-04-24T03:12:28;15.07;;;10.02;;
74833;SDS011;63361;52.384;20.930;2023-04-24T03:14:53;16.87;;;9.73;;
74833;SDS011;63361;52.384;20.930;2023-04-24T03:17:19;15.37;;;9.93;;
74833;SDS011;63361;52.384;20.930;2023-04-24T03:19:44;15.60;;;10.17;;
74833;SDS011;63361;52.384;20.930;2023-04-24T03:22:09;15.90;;;9.80;;
74833;SDS011;63361;52.384;20.930;2023-04-24T03:24:36;15.73;;;9.10;;
74833;SDS011;63361;52.384;20.930;2023-04-24T03:27:01;21.40;;;10.00;;
74833;SDS011;63361;52.384;20.930;2023-04-24T03:29:26;19.10;;;9.07;;
74833;SDS011;63361;52.384;20.930;2023-04-24T03:31:52;20.03;;;9.03;;
74833;SDS011;63361;52.384;20.930;2023-04-24T03:34:17;14.63;;;8.97;;
74833;SDS011;63361;52.384;20.930;2023-04-24T03:36:42;19.57;;;9.00;;
74833;SDS011;63361;52.384;20.930;2023-04-24T03:39:08;14.68;;;8.50;;
74833;SDS011;63361;52.384;20.930;2023-04-24T03:41:33;15.03;;;8.77;;
74833;SDS011;63361;52.384;20.930;2023-04-24T03:43:59;14.47;;;9.50;;
74833;SDS011;63361;52.384;20.930;2023-04-24T03:46:25;14.32;;;8.65;;
74833;SDS011;63361;52.384;20.930;2023-04-24T03:48:50;14.53;;;8.20;;
74833;SDS011;63361;52.384;20.930;2023-04-24T03:51:15;15.77;;;9.30;;
74833;SDS011;63361;52.384;20.930;2023-04-24T03:53:41;18.30;;;8.33;;
74833;SDS011;63361;52.384;20.930;2023-04-24T03:56:06;14.80;;;8.13;;
74833;SDS011;63361;52.384;20.930;2023-04-24T03:58:32;12.68;;;7.95;;
74833;SDS011;63361;52.384;20.930;2023-04-24T04:00:57;16.33;;;8.23;;
74833;SDS011;63361;52.384;20.930;2023-04-24T04:03:23;16.27;;;8.70;;
74833;SDS011;63361;52.384;20.930;2023-04-24T04:05:49;13.05;;;7.63;;
74833;SDS011;63361;52.384;20.930;2023-04-24T04:08:14;14.67;;;8.03;;
74833;SDS011;63361;52.384;20.930;2023-04-24T04:10:39;13.80;;;8.30;;
74833;SDS011;63361;52.384;20.930;2023-04-24T04:13:05;16.40;;;7.72;;
74833;SDS011;63361;52.384;20.930;2023-04-24T04:15:31;16.07;;;8.17;;
74833;SDS011;63361;52.384;20.930;2023-04-24T04:17:56;19.98;;;8.63;;
74833;SDS011;63361;52.384;20.930;2023-04-24T04:20:22;16.93;;;7.83;;
74833;SDS011;63361;52.384;20.930;2023-04-24T04:22:47;15.17;;;8.57;;
74833;SDS011;63361;52.384;20.930;2023-04-24T04:25:13;13.27;;;8.10;;
74833;SDS011;63361;52.384;20.930;2023-04-24T04:27:38;14.97;;;7.97;;
74833;SDS011;63361;52.384;20.930;2023-04-24T04:30:04;16.93;;;8.30;;
74833;SDS011;63361;52.384;20.930;2023-04-24T04:32:31;14.25;;;7.82;;
74833;SDS011;63361;52.384;20.930;2023-04-24T04:34:58;14.00;;;7.70;;
74833;SDS011;63361;52.384;20.930;2023-04-24T04:37:27;13.55;;;7.75;;
74833;SDS011;63361;52.384;20.930;2023-04-24T04:39:53;17.05;;;7.50;;
74833;SDS011;63361;52.384;20.930;2023-04-24T04:42:19;16.10;;;7.73;;
74833;SDS011;63361;52.384;20.930;2023-04-24T04:44:45;18.40;;;8.25;;
74833;SDS011;63361;52.384;20.930;2023-04-24T04:47:10;15.20;;;8.37;;
74833;SDS011;63361;52.384;20.930;2023-04-24T04:49:36;16.70;;;7.70;;
74833;SDS011;63361;52.384;20.930;2023-04-24T04:52:03;14.20;;;7.77;;
74833;SDS011;63361;52.384;20.930;2023-04-24T04:54:28;18.55;;;8.27;;
74833;SDS011;63361;52.384;20.930;2023-04-24T04:56:54;16.30;;;8.17;;
74833;SDS011;63361;52.384;20.930;2023-04-24T04:59:19;14.67;;;7.87;;
74833;SDS011;63361;52.384;20.930;2023-04-24T05:01:45;15.07;;;7.87;;
74833;SDS011;63361;52.384;20.930;2023-04-24T05:04:10;19.00;;;8.27;;
74833;SDS011;63361;52.384;20.930;2023-04-24T05:06:36;18.30;;;8.02;;
74833;SDS011;63361;52.384;20.930;2023-04-24T05:09:02;14.60;;;8.10;;
74833;SDS011;63361;52.384;20.930;2023-04-24T05:11:28;16.80;;;7.90;;
74833;SDS011;63361;52.384;20.930;2023-04-24T05:13:54;16.38;;;8.05;;
74833;SDS011;63361;52.384;20.930;2023-04-24T05:16:19;18.10;;;8.07;;
74833;SDS011;63361;52.384;20.930;2023-04-24T05:18:45;13.30;;;7.10;;
74833;SDS011;63361;52.384;20.930;2023-04-24T05:21:10;16.27;;;7.90;;
74833;SDS011;63361;52.384;20.930;2023-04-24T05:23:36;15.50;;;7.60;;
74833;SDS011;63361;52.384;20.930;2023-04-24T05:26:01;17.77;;;7.90;;
74833;SDS011;63361;52.384;20.930;2023-04-24T05:28:27;17.23;;;8.05;;
74833;SDS011;63361;52.384;20.930;2023-04-24T05:30:53;15.18;;;8.07;;
74833;SDS011;63361;52.384;20.930;2023-04-24T05:33:20;15.53;;;7.27;;
74833;SDS011;63361;52.384;20.930;2023-04-24T05:35:47;14.70;;;8.07;;
74833;SDS011;63361;52.384;20.930;2023-04-24T05:38:12;15.43;;;7.40;;
74833;SDS011;63361;52.384;20.930;2023-04-24T05:40:38;15.47;;;8.07;;
74833;SDS011;63361;52.384;20.930;2023-04-24T05:43:04;20.38;;;8.50;;
74833;SDS011;63361;52.384;20.930;2023-04-24T05:45:30;17.73;;;7.67;;
74833;SDS011;63361;52.384;20.930;2023-04-24T05:47:55;19.20;;;7.82;;
74833;SDS011;63361;52.384;20.930;2023-04-24T05:50:21;18.73;;;7.97;;
74833;SDS011;63361;52.384;20.930;2023-04-24T05:52:46;16.03;;;7.70;;
74833;SDS011;63361;52.384;20.930;2023-04-24T05:55:11;16.88;;;7.72;;
74833;SDS011;63361;52.384;20.930;2023-04-24T05:57:37;12.83;;;7.23;;
74833;SDS011;63361;52.384;20.930;2023-04-24T06:00:03;19.97;;;7.60;;
74833;SDS011;63361;52.384;20.930;2023-04-24T06:02:29;13.98;;;7.20;;
74833;SDS011;63361;52.384;20.930;2023-04-24T06:04:57;16.52;;;7.43;;
74833;SDS011;63361;52.384;20.930;2023-04-24T06:07:24;13.40;;;7.50;;
74833;SDS011;63361;52.384;20.930;2023-04-24T06:09:51;13.80;;;7.05;;
74833;SDS011;63361;52.384;20.930;2023-04-24T06:12:17;14.30;;;6.70;;
74833;SDS011;63361;52.384;20.930;2023-04-24T06:14:42;17.15;;;7.45;;
74833;SDS011;63361;52.384;20.930;2023-04-24T06:17:07;17.10;;;7.60;;
74833;SDS011;63361;52.384;20.930;2023-04-24T06:19:33;14.50;;;6.80;;
74833;SDS011;63361;52.384;20.930;2023-04-24T06:21:58;15.40;;;6.70;;
74833;SDS011;63361;52.384;20.930;2023-04-24T06:24:27;14.60;;;7.33;;
74833;SDS011;63361;52.384;20.930;2023-04-24T06:26:52;18.33;;;7.03;;
74833;SDS011;63361;52.384;20.930;2023-04-24T06:29:17;14.93;;;7.10;;
74833;SDS011;63361;52.384;20.930;2023-04-24T06:31:43;13.60;;;7.07;;
74833;SDS011;63361;52.384;20.930;2023-04-24T06:34:08;15.13;;;6.90;;
74833;SDS011;63361;52.384;20.930;2023-04-24T06:36:33;14.03;;;6.87;;
74833;SDS011;63361;52.384;20.930;2023-04-24T06:39:00;15.70;;;7.30;;
74833;SDS011;63361;52.384;20.930;2023-04-24T06:41:26;17.88;;;7.35;;
74833;SDS011;63361;52.384;20.930;2023-04-24T06:43:52;13.43;;;6.97;;
74833;SDS011;63361;52.384;20.930;2023-04-24T06:46:17;14.07;;;7.03;;
74833;SDS011;63361;52.384;20.930;2023-04-24T06:48:43;13.93;;;7.57;;
74833;SDS011;63361;52.384;20.930;2023-04-24T06:51:08;13.90;;;6.90;;
74833;SDS011;63361;52.384;20.930;2023-04-24T06:53:34;14.43;;;7.20;;
74833;SDS011;63361;52.384;20.930;2023-04-24T06:56:00;14.57;;;7.13;;
74833;SDS011;63361;52.384;20.930;2023-04-24T06:58:25;14.13;;;7.07;;
74833;SDS011;63361;52.384;20.930;2023-04-24T07:00:51;14.33;;;7.43;;
74833;SDS011;63361;52.384;20.930;2023-04-24T07:03:16;14.43;;;6.87;;
74833;SDS011;63361;52.384;20.930;2023-04-24T07:05:41;17.48;;;7.18;;
74833;SDS011;63361;52.384;20.930;2023-04-24T07:08:07;11.57;;;6.70;;
74833;SDS011;63361;52.384;20.930;2023-04-24T07:10:36;14.43;;;7.00;;
74833;SDS011;63361;52.384;20.930;2023-04-24T07:13:01;15.80;;;7.70;;
74833;SDS011;63361;52.384;20.930;2023-04-24T07:15:27;13.80;;;7.82;;
74833;SDS011;63361;52.384;20.930;2023-04-24T07:17:52;15.13;;;6.87;;
74833;SDS011;63361;52.384;20.930;2023-04-24T07:20:18;12.13;;;6.70;;
74833;SDS011;63361;52.384;20.930;2023-04-24T07:22:43;14.27;;;6.43;;
74833;SDS011;63361;52.384;20.930;2023-04-24T07:25:09;13.60;;;6.40;;
74833;SDS011;63361;52.384;20.930;2023-04-24T07:27:34;10.85;;;5.95;;
74833;SDS011;63361;52.384;20.930;2023-04-24T07:30:01;17.40;;;6.13;;
74833;SDS011;63361;52.384;20.930;2023-04-24T07:32:27;13.80;;;5.85;;
74833;SDS011;63361;52.384;20.930;2023-04-24T07:34:52;12.43;;;5.80;;
74833;SDS011;63361;52.384;20.930;2023-04-24T07:37:18;14.73;;;5.83;;
74833;SDS011;63361;52.384;20.930;2023-04-24T07:39:43;10.13;;;5.70;;
74833;SDS011;63361;52.384;20.930;2023-04-24T07:42:09;11.30;;;6.13;;
74833;SDS011;63361;52.384;20.930;2023-04-24T07:44:34;11.53;;;6.20;;
74833;SDS011;63361;52.384;20.930;2023-04-24T07:47:01;14.20;;;5.70;;
74833;SDS011;63361;52.384;20.930;2023-04-24T07:49:26;14.70;;;5.90;;
74833;SDS011;63361;52.384;20.930;2023-04-24T07:51:52;11.48;;;5.05;;
74833;SDS011;63361;52.384;20.930;2023-04-24T07:54:18;13.63;;;6.25;;
74833;SDS011;63361;52.384;20.930;2023-04-24T07:56:43;11.20;;;5.70;;
74833;SDS011;63361;52.384;20.930;2023-04-24T07:59:09;9.07;;;5.27;;
74833;SDS011;63361;52.384;20.930;2023-04-24T08:01:35;9.80;;;5.25;;
74833;SDS011;63361;52.384;20.930;2023-04-24T08:04:01;9.90;;;5.70;;
74833;SDS011;63361;52.384;20.930;2023-04-24T08:06:27;13.30;;;5.93;;
74833;SDS011;63361;52.384;20.930;2023-04-24T08:08:55;13.55;;;6.22;;
74833;SDS011;63361;52.384;20.930;2023-04-24T08:11:21;12.47;;;6.03;;
74833;SDS011;63361;52.384;20.930;2023-04-24T08:13:46;13.00;;;5.30;;
74833;SDS011;63361;52.384;20.930;2023-04-24T08:16:12;13.53;;;6.00;;
74833;SDS011;63361;52.384;20.930;2023-04-24T08:18:37;13.70;;;6.67;;
74833;SDS011;63361;52.384;20.930;2023-04-24T08:21:02;12.97;;;6.03;;
74833;SDS011;63361;52.384;20.930;2023-04-24T08:23:28;12.48;;;6.80;;
74833;SDS011;63361;52.384;20.930;2023-04-24T08:25:54;13.30;;;5.90;;
74833;SDS011;63361;52.384;20.930;2023-04-24T08:28:20;15.50;;;6.15;;
74833;SDS011;63361;52.384;20.930;2023-04-24T08:30:46;18.70;;;5.70;;
74833;SDS011;63361;52.384;20.930;2023-04-24T08:33:19;13.70;;;5.68;;
74833;SDS011;63361;52.384;20.930;2023-04-24T08:35:45;10.20;;;6.13;;
74833;SDS011;63361;52.384;20.930;2023-04-24T08:38:10;12.53;;;6.43;;
74833;SDS011;63361;52.384;20.930;2023-04-24T08:40:36;16.07;;;5.73;;
74833;SDS011;63361;52.384;20.930;2023-04-24T08:43:01;12.80;;;6.20;;
74833;SDS011;63361;52.384;20.930;2023-04-24T08:45:28;14.68;;;6.20;;
74833;SDS011;63361;52.384;20.930;2023-04-24T08:47:54;10.63;;;5.50;;
74833;SDS011;63361;52.384;20.930;2023-04-24T08:50:20;11.35;;;5.57;;
74833;SDS011;63361;52.384;20.930;2023-04-24T08:52:47;10.43;;;5.43;;
74833;SDS011;63361;52.384;20.930;2023-04-24T08:55:15;14.27;;;6.13;;
74833;SDS011;63361;52.384;20.930;2023-04-24T08:57:43;14.70;;;6.45;;
74833;SDS011;63361;52.384;20.930;2023-04-24T09:00:10;16.23;;;5.75;;
74833;SDS011;63361;52.384;20.930;2023-04-24T09:02:38;9.63;;;5.90;;
74833;SDS011;63361;52.384;20.930;2023-04-24T09:05:06;14.53;;;6.30;;
74833;SDS011;63361;52.384;20.930;2023-04-24T09:07:33;10.50;;;6.00;;
74833;SDS011;63361;52.384;20.930;2023-04-24T09:10:01;11.95;;;6.35;;
74833;SDS011;63361;52.384;20.930;2023-04-24T09:12:27;10.88;;;5.82;;
74833;SDS011;63361;52.384;20.930;2023-04-24T09:14:52;12.30;;;5.67;;
74833;SDS011;63361;52.384;20.930;2023-04-24T09:17:20;13.45;;;6.25;;
74833;SDS011;63361;52.384;20.930;2023-04-24T09:19:47;16.95;;;6.22;;
74833;SDS011;63361;52.384;20.930;2023-04-24T09:22:13;15.33;;;5.50;;
74833;SDS011;63361;52.384;20.930;2023-04-24T09:24:38;17.03;;;6.13;;
74833;SDS011;63361;52.384;20.930;2023-04-24T09:27:04;14.13;;;5.80;;
74833;SDS011;63361;52.384;20.930;2023-04-24T09:29:30;14.23;;;6.17;;
74833;SDS011;63361;52.384;20.930;2023-04-24T09:31:56;13.52;;;5.90;;
74833;SDS011;63361;52.384;20.930;2023-04-24T09:34:22;14.47;;;5.73;;
74833;SDS011;63361;52.384;20.930;2023-04-24T09:36:49;18.10;;;6.75;;
74833;SDS011;63361;52.384;20.930;2023-04-24T09:39:15;12.93;;;6.25;;
74833;SDS011;63361;52.384;20.930;2023-04-24T09:41:51;13.25;;;6.15;;
74833;SDS011;63361;52.384;20.930;2023-04-24T09:44:21;15.87;;;6.67;;
74833;SDS011;63361;52.384;20.930;2023-04-24T09:46:54;12.88;;;6.10;;
74833;SDS011;63361;52.384;20.930;2023-04-24T09:49:25;10.40;;;5.80;;
74833;SDS011;63361;52.384;20.930;2023-04-24T09:51:52;14.15;;;6.38;;
74833;SDS011;63361;52.384;20.930;2023-04-24T09:54:28;15.57;;;5.72;;
74833;SDS011;63361;52.384;20.930;2023-04-24T09:56:54;16.47;;;5.60;;
74833;SDS011;63361;52.384;20.930;2023-04-24T09:59:21;12.25;;;5.57;;
74833;SDS011;63361;52.384;20.930;2023-04-24T10:01:47;11.77;;;6.03;;
74833;SDS011;63361;52.384;20.930;2023-04-24T10:04:21;13.30;;;5.63;;
74833;SDS011;63361;52.384;20.930;2023-04-24T10:06:49;13.07;;;4.55;;
74833;SDS011;63361;52.384;20.930;2023-04-24T10:09:20;10.10;;;4.40;;
74833;SDS011;63361;52.384;20.930;2023-04-24T10:11:47;7.68;;;4.47;;
74833;SDS011;63361;52.384;20.930;2023-04-24T10:14:14;9.02;;;4.80;;
74833;SDS011;63361;52.384;20.930;2023-04-24T10:16:41;11.50;;;5.20;;
74833;SDS011;63361;52.384;20.930;2023-04-24T10:19:07;8.43;;;4.80;;
74833;SDS011;63361;52.384;20.930;2023-04-24T10:21:33;8.73;;;4.67;;
74833;SDS011;63361;52.384;20.930;2023-04-24T10:24:00;10.70;;;4.78;;
74833;SDS011;63361;52.384;20.930;2023-04-24T10:26:28;10.25;;;5.18;;
74833;SDS011;63361;52.384;20.930;2023-04-24T10:28:54;11.90;;;5.43;;
74833;SDS011;63361;52.384;20.930;2023-04-24T10:31:22;9.90;;;4.90;;
74833;SDS011;63361;52.384;20.930;2023-04-24T10:33:48;10.13;;;5.30;;
74833;SDS011;63361;52.384;20.930;2023-04-24T10:36:16;8.40;;;4.80;;
74833;SDS011;63361;52.384;20.930;2023-04-24T10:38:43;8.20;;;4.20;;
74833;SDS011;63361;52.384;20.930;2023-04-24T10:41:11;8.02;;;4.00;;
74833;SDS011;63361;52.384;20.930;2023-04-24T10:43:44;7.68;;;4.30;;
74833;SDS011;63361;52.384;20.930;2023-04-24T10:46:10;10.07;;;4.40;;
74833;SDS011;63361;52.384;20.930;2023-04-24T10:48:44;7.15;;;4.30;;
74833;SDS011;63361;52.384;20.930;2023-04-24T10:51:18;10.17;;;4.40;;
74833;SDS011;63361;52.384;20.930;2023-04-24T10:53:47;9.60;;;4.32;;
74833;SDS011;63361;52.384;20.930;2023-04-24T10:56:15;9.43;;;4.55;;
74833;SDS011;63361;52.384;20.930;2023-04-24T10:58:42;7.30;;;4.50;;
74833;SDS011;63361;52.384;20.930;2023-04-24T11:04:01;8.85;;;4.30;;
74833;SDS011;63361;52.384;20.930;2023-04-24T11:06:35;6.70;;;4.28;;
74833;SDS011;63361;52.384;20.930;2023-04-24T11:09:05;9.23;;;4.57;;
74833;SDS011;63361;52.384;20.930;2023-04-24T11:11:34;7.47;;;4.32;;
74833;SDS011;63361;52.384;20.930;2023-04-24T11:14:01;8.47;;;4.50;;
74833;SDS011;63361;52.384;20.930;2023-04-24T11:16:36;8.30;;;4.30;;
74833;SDS011;63361;52.384;20.930;2023-04-24T11:21:43;9.20;;;4.60;;
74833;SDS011;63361;52.384;20.930;2023-04-24T11:27:11;10.35;;;4.82;;
74833;SDS011;63361;52.384;20.930;2023-04-24T11:29:40;8.05;;;4.55;;
74833;SDS011;63361;52.384;20.930;2023-04-24T11:32:22;11.07;;;4.43;;
74833;SDS011;63361;52.384;20.930;2023-04-24T11:37:42;10.18;;;4.80;;
74833;SDS011;63361;52.384;20.930;2023-04-24T11:40:11;6.68;;;4.20;;
74833;SDS011;63361;52.384;20.930;2023-04-24T11:42:38;9.93;;;3.80;;
74833;SDS011;63361;52.384;20.930;2023-04-24T11:45:12;8.83;;;3.83;;
74833;SDS011;63361;52.384;20.930;2023-04-24T11:47:39;7.07;;;4.20;;
74833;SDS011;63361;52.384;20.930;2023-04-24T11:50:06;6.10;;;3.92;;
74833;SDS011;63361;52.384;20.930;2023-04-24T11:52:33;6.00;;;4.05;;
74833;SDS011;63361;52.384;20.930;2023-04-24T11:55:02;8.25;;;4.22;;
74833;SDS011;63361;52.384;20.930;2023-04-24T11:57:28;10.07;;;4.40;;
74833;SDS011;63361;52.384;20.930;2023-04-24T12:00:02;7.07;;;3.55;;
74833;SDS011;63361;52.384;20.930;2023-04-24T12:02:30;7.18;;;3.65;;
74833;SDS011;63361;52.384;20.930;2023-04-24T12:04:55;7.40;;;3.63;;
74833;SDS011;63361;52.384;20.930;2023-04-24T12:07:21;5.63;;;3.57;;
74833;SDS011;63361;52.384;20.930;2023-04-24T12:09:48;7.03;;;3.35;;
74833;SDS011;63361;52.384;20.930;2023-04-24T12:12:20;6.53;;;3.83;;
74833;SDS011;63361;52.384;20.930;2023-04-24T12:14:49;5.53;;;3.30;;
74833;SDS011;63361;52.384;20.930;2023-04-24T12:17:23;5.60;;;3.40;;
74833;SDS011;63361;52.384;20.930;2023-04-24T12:19:52;7.28;;;3.50;;
74833;SDS011;63361;52.384;20.930;2023-04-24T12:22:21;6.78;;;3.53;;
74833;SDS011;63361;52.384;20.930;2023-04-24T12:25:03;7.83;;;3.83;;
74833;SDS011;63361;52.384;20.930;2023-04-24T12:27:33;7.68;;;3.40;;
74833;SDS011;63361;52.384;20.930;2023-04-24T12:29:59;6.30;;;3.17;;
74833;SDS011;63361;52.384;20.930;2023-04-24T12:32:25;6.43;;;3.22;;
74833;SDS011;63361;52.384;20.930;2023-04-24T12:34:51;7.38;;;3.70;;
74833;SDS011;63361;52.384;20.930;2023-04-24T12:37:17;8.35;;;3.60;;
74833;SDS011;63361;52.384;20.930;2023-04-24T12:42:50;6.28;;;3.55;;
74833;SDS011;63361;52.384;20.930;2023-04-24T12:45:19;5.85;;;3.75;;
74833;SDS011;63361;52.384;20.930;2023-04-24T12:47:45;7.50;;;3.67;;
74833;SDS011;63361;52.384;20.930;2023-04-24T12:50:12;7.80;;;3.77;;
74833;SDS011;63361;52.384;20.930;2023-04-24T12:52:39;8.45;;;3.50;;
74833;SDS011;63361;52.384;20.930;2023-04-24T12:55:05;7.75;;;3.80;;
74833;SDS011;63361;52.384;20.930;2023-04-24T12:57:33;6.72;;;3.53;;
74833;SDS011;63361;52.384;20.930;2023-04-24T12:59:59;6.70;;;3.75;;
74833;SDS011;63361;52.384;20.930;2023-04-24T13:02:26;7.20;;;3.23;;
74833;SDS011;63361;52.384;20.930;2023-04-24T13:04:54;6.53;;;3.50;;
74833;SDS011;63361;52.384;20.930;2023-04-24T13:07:20;7.95;;;3.70;;
74833;SDS011;63361;52.384;20.930;2023-04-24T13:09:47;5.90;;;3.47;;
74833;SDS011;63361;52.384;20.930;2023-04-24T13:12:14;12.60;;;3.63;;
74833;SDS011;63361;52.384;20.930;2023-04-24T13:14:40;26.35;;;4.70;;
74833;SDS011;63361;52.384;20.930;2023-04-24T13:17:05;14.47;;;4.00;;
74833;SDS011;63361;52.384;20.930;2023-04-24T13:19:39;9.18;;;3.80;;
74833;SDS011;63361;52.384;20.930;2023-04-24T13:22:09;12.27;;;4.20;;
74833;SDS011;63361;52.384;20.930;2023-04-24T13:24:36;13.18;;;3.08;;
74833;SDS011;63361;52.384;20.930;2023-04-24T13:27:02;10.18;;;3.50;;
74833;SDS011;63361;52.384;20.930;2023-04-24T13:29:27;9.47;;;3.00;;
74833;SDS011;63361;52.384;20.930;2023-04-24T13:31:53;9.13;;;3.10;;
74833;SDS011;63361;52.384;20.930;2023-04-24T13:34:20;10.63;;;3.22;;
74833;SDS011;63361;52.384;20.930;2023-04-24T13:36:46;8.93;;;2.90;;
74833;SDS011;63361;52.384;20.930;2023-04-24T13:39:12;8.30;;;3.10;;
74833;SDS011;63361;52.384;20.930;2023-04-24T13:41:37;6.95;;;3.00;;
74833;SDS011;63361;52.384;20.930;2023-04-24T13:44:03;7.20;;;2.57;;
74833;SDS011;63361;52.384;20.930;2023-04-24T13:46:29;5.82;;;3.08;;
74833;SDS011;63361;52.384;20.930;2023-04-24T13:48:55;7.95;;;3.20;;
74833;SDS011;63361;52.384;20.930;2023-04-24T13:51:25;9.53;;;2.80;;
74833;SDS011;63361;52.384;20.930;2023-04-24T13:53:52;6.70;;;3.05;;
74833;SDS011;63361;52.384;20.930;2023-04-24T13:56:17;6.07;;;2.80;;
74833;SDS011;63361;52.384;20.930;2023-04-24T13:58:43;7.37;;;2.70;;
74833;SDS011;63361;52.384;20.930;2023-04-24T14:01:08;10.23;;;3.50;;
74833;SDS011;63361;52.384;20.930;2023-04-24T14:03:33;6.33;;;3.03;;
74833;SDS011;63361;52.384;20.930;2023-04-24T14:05:59;5.07;;;3.08;;
74833;SDS011;63361;52.384;20.930;2023-04-24T14:08:24;5.70;;;3.23;;
74833;SDS011;63361;52.384;20.930;2023-04-24T14:10:50;7.57;;;2.70;;
74833;SDS011;63361;52.384;20.930;2023-04-24T14:13:15;6.57;;;3.23;;
74833;SDS011;63361;52.384;20.930;2023-04-24T14:15:41;7.47;;;3.10;;
74833;SDS011;63361;52.384;20.930;2023-04-24T14:18:06;6.27;;;2.90;;
74833;SDS011;63361;52.384;20.930;2023-04-24T14:20:32;10.53;;;3.07;;
74833;SDS011;63361;52.384;20.930;2023-04-24T14:22:57;6.53;;;3.20;;
74833;SDS011;63361;52.384;20.930;2023-04-24T14:25:25;8.30;;;3.33;;
74833;SDS011;63361;52.384;20.930;2023-04-24T14:27:51;6.18;;;3.00;;
74833;SDS011;63361;52.384;20.930;2023-04-24T14:30:16;8.90;;;2.80;;
74833;SDS011;63361;52.384;20.930;2023-04-24T14:32:42;6.72;;;3.17;;